sensor_id;sensor_type;location;lat;lon;timestamp;P1;durP1;ratioP1;P2;durP2;ratioP2
32864;SDS011;19219;44.500;11.188;2023-04-25T00:00:52;8.40;;;2.75;;
32864;SDS011;19219;44.500;11.188;2023-04-25T00:03:18;7.95;;;2.58;;
32864;SDS011;19219;44.500;11.188;2023-04-25T00:05:44;4.47;;;2.17;;
32864;SDS011;19219;44.500;11.188;2023-04-25T00:08:10;8.98;;;2.70;;
32864;SDS011;19219;44.500;11.188;2023-04-25T00:10:36;5.78;;;2.80;;
32864;SDS011;19219;44.500;11.188;2023-04-25T00:13:02;6.93;;;2.88;;
32864;SDS011;19219;44.500;11.188;2023-04-25T00:15:28;8.88;;;2.30;;
32864;SDS011;19219;44.500;11.188;2023-04-25T00:17:55;7.07;;;2.53;;
32864;SDS011;19219;44.500;11.188;2023-04-25T00:20:21;6.45;;;2.63;;
32864;SDS011;19219;44.500;11.188;2023-04-25T00:22:48;5.13;;;2.33;;
32864;SDS011;19219;44.500;11.188;2023-04-25T00:25:14;8.45;;;2.60;;
32864;SDS011;19219;44.500;11.188;2023-04-25T00:27:40;10.95;;;2.72;;
32864;SDS011;19219;44.500;11.188;2023-04-25T00:30:07;13.88;;;3.08;;
32864;SDS011;19219;44.500;11.188;2023-04-25T00:32:33;14.20;;;3.63;;
32864;SDS011;19219;44.500;11.188;2023-04-25T00:34:59;7.88;;;2.72;;
32864;SDS011;19219;44.500;11.188;2023-04-25T00:37:24;7.80;;;2.65;;
32864;SDS011;19219;44.500;11.188;2023-04-25T00:39:50;5.00;;;2.38;;
32864;SDS011;19219;44.500;11.188;2023-04-25T00:42:18;6.43;;;2.80;;
32864;SDS011;19219;44.500;11.188;2023-04-25T00:44:44;8.48;;;2.80;;
32864;SDS011;19219;44.500;11.188;2023-04-25T00:47:10;11.57;;;2.72;;
32864;SDS011;19219;44.500;11.188;2023-04-25T00:49:36;7.28;;;3.20;;
32864;SDS011;19219;44.500;11.188;2023-04-25T00:52:02;11.00;;;3.35;;
32864;SDS011;19219;44.500;11.188;2023-04-25T00:54:27;12.60;;;3.15;;
32864;SDS011;19219;44.500;11.188;2023-04-25T00:56:55;10.82;;;3.85;;
32864;SDS011;19219;44.500;11.188;2023-04-25T00:59:20;7.97;;;3.00;;
32864;SDS011;19219;44.500;11.188;2023-04-25T01:01:46;9.57;;;3.17;;
32864;SDS011;19219;44.500;11.188;2023-04-25T01:04:12;7.20;;;2.63;;
32864;SDS011;19219;44.500;11.188;2023-04-25T01:06:38;10.07;;;2.95;;
32864;SDS011;19219;44.500;11.188;2023-04-25T01:09:04;14.25;;;3.50;;
32864;SDS011;19219;44.500;11.188;2023-04-25T01:11:30;6.68;;;2.70;;
32864;SDS011;19219;44.500;11.188;2023-04-25T01:13:56;12.10;;;3.28;;
32864;SDS011;19219;44.500;11.188;2023-04-25T01:16:22;7.78;;;2.90;;
32864;SDS011;19219;44.500;11.188;2023-04-25T01:18:49;16.80;;;4.00;;
32864;SDS011;19219;44.500;11.188;2023-04-25T01:21:16;7.70;;;3.42;;
32864;SDS011;19219;44.500;11.188;2023-04-25T01:23:42;10.07;;;3.03;;
32864;SDS011;19219;44.500;11.188;2023-04-25T01:26:08;6.20;;;2.97;;
32864;SDS011;19219;44.500;11.188;2023-04-25T01:28:35;8.10;;;2.97;;
32864;SDS011;19219;44.500;11.188;2023-04-25T01:31:01;9.70;;;3.53;;
32864;SDS011;19219;44.500;11.188;2023-04-25T01:33:29;5.97;;;2.80;;
32864;SDS011;19219;44.500;11.188;2023-04-25T01:35:55;6.60;;;2.83;;
32864;SDS011;19219;44.500;11.188;2023-04-25T01:38:21;10.25;;;2.95;;
32864;SDS011;19219;44.500;11.188;2023-04-25T01:40:46;9.27;;;3.08;;
32864;SDS011;19219;44.500;11.188;2023-04-25T01:43:15;9.65;;;2.33;;
32864;SDS011;19219;44.500;11.188;2023-04-25T01:45:41;6.80;;;2.55;;
32864;SDS011;19219;44.500;11.188;2023-04-25T01:48:08;9.02;;;2.78;;
32864;SDS011;19219;44.500;11.188;2023-04-25T01:50:35;10.30;;;2.22;;
32864;SDS011;19219;44.500;11.188;2023-04-25T01:53:00;11.27;;;3.08;;
32864;SDS011;19219;44.500;11.188;2023-04-25T01:55:27;9.57;;;2.72;;
32864;SDS011;19219;44.500;11.188;2023-04-25T01:57:53;8.43;;;3.30;;
32864;SDS011;19219;44.500;11.188;2023-04-25T02:00:18;5.63;;;2.47;;
32864;SDS011;19219;44.500;11.188;2023-04-25T02:02:44;8.82;;;3.00;;
32864;SDS011;19219;44.500;11.188;2023-04-25T02:05:10;7.15;;;2.67;;
32864;SDS011;19219;44.500;11.188;2023-04-25T02:07:36;6.35;;;2.58;;
32864;SDS011;19219;44.500;11.188;2023-04-25T02:10:02;4.40;;;2.80;;
32864;SDS011;19219;44.500;11.188;2023-04-25T02:12:28;7.35;;;2.75;;
32864;SDS011;19219;44.500;11.188;2023-04-25T02:14:56;5.00;;;2.30;;
32864;SDS011;19219;44.500;11.188;2023-04-25T02:17:22;7.82;;;3.10;;
32864;SDS011;19219;44.500;11.188;2023-04-25T02:19:48;11.13;;;2.85;;
32864;SDS011;19219;44.500;11.188;2023-04-25T02:22:15;8.75;;;2.63;;
32864;SDS011;19219;44.500;11.188;2023-04-25T02:24:40;6.05;;;2.17;;
32864;SDS011;19219;44.500;11.188;2023-04-25T02:27:06;7.25;;;2.85;;
32864;SDS011;19219;44.500;11.188;2023-04-25T02:29:32;7.50;;;2.95;;
32864;SDS011;19219;44.500;11.188;2023-04-25T02:31:58;6.03;;;2.65;;
32864;SDS011;19219;44.500;11.188;2023-04-25T02:34:24;9.23;;;2.85;;
32864;SDS011;19219;44.500;11.188;2023-04-25T02:36:49;6.35;;;2.80;;
32864;SDS011;19219;44.500;11.188;2023-04-25T02:39:18;10.23;;;2.92;;
32864;SDS011;19219;44.500;11.188;2023-04-25T02:41:43;7.00;;;2.65;;
32864;SDS011;19219;44.500;11.188;2023-04-25T02:44:09;6.50;;;2.78;;
32864;SDS011;19219;44.500;11.188;2023-04-25T02:46:35;9.07;;;2.75;;
32864;SDS011;19219;44.500;11.188;2023-04-25T02:49:00;8.63;;;2.72;;
32864;SDS011;19219;44.500;11.188;2023-04-25T02:51:26;5.35;;;2.38;;
32864;SDS011;19219;44.500;11.188;2023-04-25T02:53:52;13.73;;;3.28;;
32864;SDS011;19219;44.500;11.188;2023-04-25T02:56:17;8.05;;;2.70;;
32864;SDS011;19219;44.500;11.188;2023-04-25T02:58:43;7.80;;;3.05;;
32864;SDS011;19219;44.500;11.188;2023-04-25T03:01:09;4.97;;;2.70;;
32864;SDS011;19219;44.500;11.188;2023-04-25T03:03:35;10.40;;;3.65;;
32864;SDS011;19219;44.500;11.188;2023-04-25T03:06:00;5.55;;;2.90;;
32864;SDS011;19219;44.500;11.188;2023-04-25T03:08:26;4.50;;;3.33;;
32864;SDS011;19219;44.500;11.188;2023-04-25T03:10:57;11.13;;;2.78;;
32864;SDS011;19219;44.500;11.188;2023-04-25T03:13:23;11.25;;;3.00;;
32864;SDS011;19219;44.500;11.188;2023-04-25T03:15:49;6.88;;;2.72;;
32864;SDS011;19219;44.500;11.188;2023-04-25T03:18:14;8.05;;;3.13;;
32864;SDS011;19219;44.500;11.188;2023-04-25T03:20:40;10.60;;;3.10;;
32864;SDS011;19219;44.500;11.188;2023-04-25T03:23:07;6.07;;;3.13;;
32864;SDS011;19219;44.500;11.188;2023-04-25T03:25:32;4.82;;;2.88;;
32864;SDS011;19219;44.500;11.188;2023-04-25T03:27:58;10.02;;;4.65;;
32864;SDS011;19219;44.500;11.188;2023-04-25T03:30:23;7.03;;;5.05;;
32864;SDS011;19219;44.500;11.188;2023-04-25T03:32:49;11.35;;;5.90;;
32864;SDS011;19219;44.500;11.188;2023-04-25T03:35:15;12.52;;;5.13;;
32864;SDS011;19219;44.500;11.188;2023-04-25T03:37:41;9.70;;;6.20;;
32864;SDS011;19219;44.500;11.188;2023-04-25T03:40:10;15.02;;;6.13;;
32864;SDS011;19219;44.500;11.188;2023-04-25T03:42:36;10.80;;;5.50;;
32864;SDS011;19219;44.500;11.188;2023-04-25T03:45:01;10.00;;;5.55;;
32864;SDS011;19219;44.500;11.188;2023-04-25T03:47:27;10.07;;;5.45;;
32864;SDS011;19219;44.500;11.188;2023-04-25T03:49:53;9.48;;;4.63;;
32864;SDS011;19219;44.500;11.188;2023-04-25T03:52:19;8.25;;;4.55;;
32864;SDS011;19219;44.500;11.188;2023-04-25T03:54:44;10.18;;;4.47;;
32864;SDS011;19219;44.500;11.188;2023-04-25T03:57:10;10.85;;;4.00;;
32864;SDS011;19219;44.500;11.188;2023-04-25T03:59:36;11.63;;;5.20;;
32864;SDS011;19219;44.500;11.188;2023-04-25T04:02:01;11.38;;;4.05;;
32864;SDS011;19219;44.500;11.188;2023-04-25T04:04:27;10.80;;;4.00;;
32864;SDS011;19219;44.500;11.188;2023-04-25T04:06:53;8.32;;;4.55;;
32864;SDS011;19219;44.500;11.188;2023-04-25T04:09:18;12.25;;;4.32;;
32864;SDS011;19219;44.500;11.188;2023-04-25T04:11:45;10.77;;;5.63;;
32864;SDS011;19219;44.500;11.188;2023-04-25T04:14:11;14.20;;;4.70;;
32864;SDS011;19219;44.500;11.188;2023-04-25T04:16:36;12.77;;;4.63;;
32864;SDS011;19219;44.500;11.188;2023-04-25T04:19:02;6.10;;;3.53;;
32864;SDS011;19219;44.500;11.188;2023-04-25T04:21:28;6.13;;;3.70;;
32864;SDS011;19219;44.500;11.188;2023-04-25T04:23:54;45.15;;;22.20;;
32864;SDS011;19219;44.500;11.188;2023-04-25T04:26:20;47.72;;;24.67;;
32864;SDS011;19219;44.500;11.188;2023-04-25T04:28:51;8.45;;;4.82;;
32864;SDS011;19219;44.500;11.188;2023-04-25T04:31:19;12.65;;;4.72;;
32864;SDS011;19219;44.500;11.188;2023-04-25T04:33:46;13.82;;;3.97;;
32864;SDS011;19219;44.500;11.188;2023-04-25T04:36:12;8.40;;;3.35;;
32864;SDS011;19219;44.500;11.188;2023-04-25T04:38:38;10.15;;;3.67;;
32864;SDS011;19219;44.500;11.188;2023-04-25T04:41:05;5.13;;;2.88;;
32864;SDS011;19219;44.500;11.188;2023-04-25T04:43:31;14.15;;;5.65;;
32864;SDS011;19219;44.500;11.188;2023-04-25T04:45:58;14.52;;;6.85;;
32864;SDS011;19219;44.500;11.188;2023-04-25T04:48:25;16.63;;;10.25;;
32864;SDS011;19219;44.500;11.188;2023-04-25T04:50:51;8.65;;;4.75;;
32864;SDS011;19219;44.500;11.188;2023-04-25T04:53:17;16.23;;;5.32;;
32864;SDS011;19219;44.500;11.188;2023-04-25T04:55:43;10.63;;;4.65;;
32864;SDS011;19219;44.500;11.188;2023-04-25T04:58:09;10.82;;;5.10;;
32864;SDS011;19219;44.500;11.188;2023-04-25T05:00:35;13.48;;;4.53;;
32864;SDS011;19219;44.500;11.188;2023-04-25T05:03:00;15.27;;;5.50;;
32864;SDS011;19219;44.500;11.188;2023-04-25T05:05:26;14.90;;;7.70;;
32864;SDS011;19219;44.500;11.188;2023-04-25T05:07:52;7.10;;;5.38;;
32864;SDS011;19219;44.500;11.188;2023-04-25T05:10:18;9.15;;;5.03;;
32864;SDS011;19219;44.500;11.188;2023-04-25T05:12:44;6.68;;;5.05;;
32864;SDS011;19219;44.500;11.188;2023-04-25T05:15:10;10.80;;;5.57;;
32864;SDS011;19219;44.500;11.188;2023-04-25T05:17:36;12.73;;;7.03;;
32864;SDS011;19219;44.500;11.188;2023-04-25T05:20:02;10.75;;;6.10;;
32864;SDS011;19219;44.500;11.188;2023-04-25T05:22:30;134.15;;;64.38;;
32864;SDS011;19219;44.500;11.188;2023-04-25T05:24:56;31.70;;;17.02;;
32864;SDS011;19219;44.500;11.188;2023-04-25T05:27:21;13.30;;;6.85;;
32864;SDS011;19219;44.500;11.188;2023-04-25T05:29:47;12.30;;;7.00;;
32864;SDS011;19219;44.500;11.188;2023-04-25T05:32:13;12.88;;;6.30;;
32864;SDS011;19219;44.500;11.188;2023-04-25T05:34:39;11.98;;;5.53;;
32864;SDS011;19219;44.500;11.188;2023-04-25T05:37:04;8.35;;;5.40;;
32864;SDS011;19219;44.500;11.188;2023-04-25T05:39:30;16.55;;;5.88;;
32864;SDS011;19219;44.500;11.188;2023-04-25T05:41:56;11.23;;;5.97;;
32864;SDS011;19219;44.500;11.188;2023-04-25T05:44:21;10.20;;;5.68;;
32864;SDS011;19219;44.500;11.188;2023-04-25T05:46:47;12.13;;;6.80;;
32864;SDS011;19219;44.500;11.188;2023-04-25T05:49:13;15.40;;;6.70;;
32864;SDS011;19219;44.500;11.188;2023-04-25T05:51:38;8.57;;;4.97;;
32864;SDS011;19219;44.500;11.188;2023-04-25T05:54:04;9.90;;;5.50;;
32864;SDS011;19219;44.500;11.188;2023-04-25T05:56:30;15.02;;;6.32;;
32864;SDS011;19219;44.500;11.188;2023-04-25T05:58:55;11.88;;;5.78;;
32864;SDS011;19219;44.500;11.188;2023-04-25T06:01:22;11.18;;;6.50;;
32864;SDS011;19219;44.500;11.188;2023-04-25T06:03:48;15.10;;;6.85;;
32864;SDS011;19219;44.500;11.188;2023-04-25T06:06:14;11.23;;;7.30;;
32864;SDS011;19219;44.500;11.188;2023-04-25T06:08:40;19.67;;;9.05;;
32864;SDS011;19219;44.500;11.188;2023-04-25T06:11:05;19.55;;;11.13;;
32864;SDS011;19219;44.500;11.188;2023-04-25T06:13:31;17.85;;;10.55;;
32864;SDS011;19219;44.500;11.188;2023-04-25T06:15:57;18.77;;;10.32;;
32864;SDS011;19219;44.500;11.188;2023-04-25T06:18:22;27.08;;;12.80;;
32864;SDS011;19219;44.500;11.188;2023-04-25T06:20:48;21.85;;;10.75;;
32864;SDS011;19219;44.500;11.188;2023-04-25T06:23:14;17.60;;;10.63;;
32864;SDS011;19219;44.500;11.188;2023-04-25T06:25:39;17.13;;;9.63;;
32864;SDS011;19219;44.500;11.188;2023-04-25T06:28:05;16.77;;;9.40;;
32864;SDS011;19219;44.500;11.188;2023-04-25T06:30:31;15.73;;;8.88;;
32864;SDS011;19219;44.500;11.188;2023-04-25T06:32:56;12.75;;;7.60;;
32864;SDS011;19219;44.500;11.188;2023-04-25T06:35:22;12.73;;;7.13;;
32864;SDS011;19219;44.500;11.188;2023-04-25T06:37:48;14.90;;;8.18;;
32864;SDS011;19219;44.500;11.188;2023-04-25T06:40:13;14.35;;;7.78;;
32864;SDS011;19219;44.500;11.188;2023-04-25T06:42:39;17.70;;;9.07;;
32864;SDS011;19219;44.500;11.188;2023-04-25T06:45:05;18.23;;;9.43;;
32864;SDS011;19219;44.500;11.188;2023-04-25T06:47:31;22.02;;;11.13;;
32864;SDS011;19219;44.500;11.188;2023-04-25T06:49:57;46.45;;;23.33;;
32864;SDS011;19219;44.500;11.188;2023-04-25T06:52:22;19.52;;;13.73;;
32864;SDS011;19219;44.500;11.188;2023-04-25T06:54:48;17.55;;;13.65;;
32864;SDS011;19219;44.500;11.188;2023-04-25T06:57:14;21.35;;;14.25;;
32864;SDS011;19219;44.500;11.188;2023-04-25T06:59:40;23.23;;;14.77;;
32864;SDS011;19219;44.500;11.188;2023-04-25T07:02:05;20.60;;;13.10;;
32864;SDS011;19219;44.500;11.188;2023-04-25T07:04:31;21.60;;;14.25;;
32864;SDS011;19219;44.500;11.188;2023-04-25T07:06:57;16.90;;;10.50;;
32864;SDS011;19219;44.500;11.188;2023-04-25T07:09:23;15.00;;;9.27;;
32864;SDS011;19219;44.500;11.188;2023-04-25T07:11:48;15.65;;;8.63;;
32864;SDS011;19219;44.500;11.188;2023-04-25T07:14:15;11.30;;;8.13;;
32864;SDS011;19219;44.500;11.188;2023-04-25T07:16:41;9.60;;;7.50;;
32864;SDS011;19219;44.500;11.188;2023-04-25T07:19:07;9.93;;;7.32;;
32864;SDS011;19219;44.500;11.188;2023-04-25T07:21:33;11.93;;;7.18;;
32864;SDS011;19219;44.500;11.188;2023-04-25T07:23:59;10.82;;;7.47;;
32864;SDS011;19219;44.500;11.188;2023-04-25T07:26:24;12.75;;;8.30;;
32864;SDS011;19219;44.500;11.188;2023-04-25T07:28:50;11.00;;;8.73;;
32864;SDS011;19219;44.500;11.188;2023-04-25T07:31:16;12.60;;;9.65;;
32864;SDS011;19219;44.500;11.188;2023-04-25T07:34:02;12.43;;;9.50;;
32864;SDS011;19219;44.500;11.188;2023-04-25T07:36:28;10.80;;;8.95;;
32864;SDS011;19219;44.500;11.188;2023-04-25T07:38:54;11.02;;;8.95;;
32864;SDS011;19219;44.500;11.188;2023-04-25T07:41:19;10.50;;;8.70;;
32864;SDS011;19219;44.500;11.188;2023-04-25T07:43:45;12.98;;;9.15;;
32864;SDS011;19219;44.500;11.188;2023-04-25T07:46:10;16.15;;;8.75;;
32864;SDS011;19219;44.500;11.188;2023-04-25T07:48:36;18.23;;;9.18;;
32864;SDS011;19219;44.500;11.188;2023-04-25T07:51:02;11.38;;;8.13;;
32864;SDS011;19219;44.500;11.188;2023-04-25T07:53:29;11.65;;;8.65;;
32864;SDS011;19219;44.500;11.188;2023-04-25T07:55:55;10.18;;;7.53;;
32864;SDS011;19219;44.500;11.188;2023-04-25T07:58:21;15.40;;;9.52;;
32864;SDS011;19219;44.500;11.188;2023-04-25T08:00:47;13.40;;;9.40;;
32864;SDS011;19219;44.500;11.188;2023-04-25T08:03:13;14.13;;;10.52;;
32864;SDS011;19219;44.500;11.188;2023-04-25T08:05:39;14.20;;;8.60;;
32864;SDS011;19219;44.500;11.188;2023-04-25T08:08:05;15.35;;;9.15;;
32864;SDS011;19219;44.500;11.188;2023-04-25T08:10:32;15.93;;;8.88;;
32864;SDS011;19219;44.500;11.188;2023-04-25T08:12:58;9.43;;;8.18;;
32864;SDS011;19219;44.500;11.188;2023-04-25T08:15:24;9.85;;;8.48;;
32864;SDS011;19219;44.500;11.188;2023-04-25T08:17:50;11.27;;;9.13;;
32864;SDS011;19219;44.500;11.188;2023-04-25T08:20:16;13.98;;;9.98;;
32864;SDS011;19219;44.500;11.188;2023-04-25T08:22:42;13.38;;;10.23;;
32864;SDS011;19219;44.500;11.188;2023-04-25T08:25:08;14.43;;;9.52;;
32864;SDS011;19219;44.500;11.188;2023-04-25T08:27:33;18.10;;;10.63;;
32864;SDS011;19219;44.500;11.188;2023-04-25T08:29:59;12.43;;;9.77;;
32864;SDS011;19219;44.500;11.188;2023-04-25T08:32:26;13.52;;;9.30;;
32864;SDS011;19219;44.500;11.188;2023-04-25T08:34:52;13.07;;;9.55;;
32864;SDS011;19219;44.500;11.188;2023-04-25T08:37:20;12.77;;;9.25;;
32864;SDS011;19219;44.500;11.188;2023-04-25T08:39:46;18.70;;;13.77;;
32864;SDS011;19219;44.500;11.188;2023-04-25T08:42:13;20.08;;;13.70;;
32864;SDS011;19219;44.500;11.188;2023-04-25T08:44:40;11.18;;;7.65;;
32864;SDS011;19219;44.500;11.188;2023-04-25T08:47:06;7.75;;;5.55;;
32864;SDS011;19219;44.500;11.188;2023-04-25T08:49:32;5.22;;;3.40;;
32864;SDS011;19219;44.500;11.188;2023-04-25T08:52:03;2.58;;;2.38;;
32864;SDS011;19219;44.500;11.188;2023-04-25T08:54:31;3.22;;;2.03;;
32864;SDS011;19219;44.500;11.188;2023-04-25T08:56:57;2.35;;;1.85;;
32864;SDS011;19219;44.500;11.188;2023-04-25T08:59:29;2.45;;;1.80;;
32864;SDS011;19219;44.500;11.188;2023-04-25T09:01:56;5.85;;;2.28;;
32864;SDS011;19219;44.500;11.188;2023-04-25T09:04:22;1.65;;;1.55;;
32864;SDS011;19219;44.500;11.188;2023-04-25T09:06:48;4.10;;;2.00;;
32864;SDS011;19219;44.500;11.188;2023-04-25T09:09:13;4.45;;;1.88;;
32864;SDS011;19219;44.500;11.188;2023-04-25T09:11:39;1.70;;;1.60;;
32864;SDS011;19219;44.500;11.188;2023-04-25T09:16:56;2.55;;;1.65;;
32864;SDS011;19219;44.500;11.188;2023-04-25T09:19:23;1.40;;;1.30;;
32864;SDS011;19219;44.500;11.188;2023-04-25T09:21:50;2.25;;;1.65;;
32864;SDS011;19219;44.500;11.188;2023-04-25T09:24:40;1.75;;;1.65;;
32864;SDS011;19219;44.500;11.188;2023-04-25T09:27:10;2.42;;;1.38;;
32864;SDS011;19219;44.500;11.188;2023-04-25T09:29:37;3.40;;;1.90;;
32864;SDS011;19219;44.500;11.188;2023-04-25T09:34:54;3.63;;;1.85;;
32864;SDS011;19219;44.500;11.188;2023-04-25T09:37:21;2.05;;;1.92;;
32864;SDS011;19219;44.500;11.188;2023-04-25T09:39:49;1.95;;;1.83;;
32864;SDS011;19219;44.500;11.188;2023-04-25T09:42:16;0.88;;;0.88;;
32864;SDS011;19219;44.500;11.188;2023-04-25T09:44:45;1.70;;;1.13;;
32864;SDS011;19219;44.500;11.188;2023-04-25T09:47:12;0.95;;;0.90;;
32864;SDS011;19219;44.500;11.188;2023-04-25T09:49:40;1.05;;;0.90;;
32864;SDS011;19219;44.500;11.188;2023-04-25T09:52:07;1.17;;;0.70;;
32864;SDS011;19219;44.500;11.188;2023-04-25T09:54:34;1.52;;;0.40;;
32864;SDS011;19219;44.500;11.188;2023-04-25T09:57:19;1.52;;;1.17;;
32864;SDS011;19219;44.500;11.188;2023-04-25T09:59:54;1.95;;;0.80;;
32864;SDS011;19219;44.500;11.188;2023-04-25T10:02:21;0.85;;;0.68;;
32864;SDS011;19219;44.500;11.188;2023-04-25T10:04:49;1.10;;;0.65;;
32864;SDS011;19219;44.500;11.188;2023-04-25T10:07:17;1.67;;;0.73;;
32864;SDS011;19219;44.500;11.188;2023-04-25T10:09:47;1.35;;;1.00;;
32864;SDS011;19219;44.500;11.188;2023-04-25T10:12:15;1.00;;;0.75;;
32864;SDS011;19219;44.500;11.188;2023-04-25T10:14:42;0.90;;;0.77;;
32864;SDS011;19219;44.500;11.188;2023-04-25T10:17:08;0.50;;;0.32;;
32864;SDS011;19219;44.500;11.188;2023-04-25T10:19:35;0.82;;;0.77;;
32864;SDS011;19219;44.500;11.188;2023-04-25T10:22:06;0.60;;;0.60;;
32864;SDS011;19219;44.500;11.188;2023-04-25T10:24:37;2.50;;;1.05;;
32864;SDS011;19219;44.500;11.188;2023-04-25T10:27:04;1.40;;;0.52;;
32864;SDS011;19219;44.500;11.188;2023-04-25T10:29:31;0.55;;;0.55;;
32864;SDS011;19219;44.500;11.188;2023-04-25T10:31:57;3.45;;;0.60;;
32864;SDS011;19219;44.500;11.188;2023-04-25T10:34:42;0.65;;;0.30;;
32864;SDS011;19219;44.500;11.188;2023-04-25T10:37:12;2.10;;;0.77;;
32864;SDS011;19219;44.500;11.188;2023-04-25T10:39:38;2.85;;;1.98;;
32864;SDS011;19219;44.500;11.188;2023-04-25T10:42:06;2.92;;;0.80;;
32864;SDS011;19219;44.500;11.188;2023-04-25T10:44:37;0.95;;;0.85;;
32864;SDS011;19219;44.500;11.188;2023-04-25T10:47:03;0.45;;;0.45;;
32864;SDS011;19219;44.500;11.188;2023-04-25T10:52:25;0.98;;;0.60;;
32864;SDS011;19219;44.500;11.188;2023-04-25T10:54:53;0.52;;;0.52;;
32864;SDS011;19219;44.500;11.188;2023-04-25T10:57:26;0.80;;;0.70;;
32864;SDS011;19219;44.500;11.188;2023-04-25T11:00:13;3.03;;;0.60;;
32864;SDS011;19219;44.500;11.188;2023-04-25T11:02:44;1.95;;;0.70;;
32864;SDS011;19219;44.500;11.188;2023-04-25T11:07:58;0.90;;;0.70;;
32864;SDS011;19219;44.500;11.188;2023-04-25T11:10:28;0.70;;;0.70;;
32864;SDS011;19219;44.500;11.188;2023-04-25T11:12:58;0.80;;;0.80;;
32864;SDS011;19219;44.500;11.188;2023-04-25T11:15:25;2.55;;;0.85;;
32864;SDS011;19219;44.500;11.188;2023-04-25T11:17:54;0.77;;;0.77;;
32864;SDS011;19219;44.500;11.188;2023-04-25T11:20:21;2.33;;;1.00;;
32864;SDS011;19219;44.500;11.188;2023-04-25T11:22:47;1.10;;;1.00;;
32864;SDS011;19219;44.500;11.188;2023-04-25T11:25:14;1.17;;;1.10;;
32864;SDS011;19219;44.500;11.188;2023-04-25T11:27:53;1.33;;;0.73;;
32864;SDS011;19219;44.500;11.188;2023-04-25T11:30:21;0.77;;;0.77;;
32864;SDS011;19219;44.500;11.188;2023-04-25T11:32:47;1.40;;;0.85;;
32864;SDS011;19219;44.500;11.188;2023-04-25T11:35:13;0.70;;;0.70;;
32864;SDS011;19219;44.500;11.188;2023-04-25T11:37:40;0.70;;;0.70;;
32864;SDS011;19219;44.500;11.188;2023-04-25T11:40:06;0.77;;;0.57;;
32864;SDS011;19219;44.500;11.188;2023-04-25T11:42:36;1.65;;;1.00;;
32864;SDS011;19219;44.500;11.188;2023-04-25T11:45:08;1.15;;;0.98;;
32864;SDS011;19219;44.500;11.188;2023-04-25T11:47:34;2.10;;;0.65;;
32864;SDS011;19219;44.500;11.188;2023-04-25T11:50:03;1.65;;;1.17;;
32864;SDS011;19219;44.500;11.188;2023-04-25T11:52:40;2.05;;;0.88;;
32864;SDS011;19219;44.500;11.188;2023-04-25T11:55:08;2.15;;;1.33;;
32864;SDS011;19219;44.500;11.188;2023-04-25T11:57:37;6.22;;;3.03;;
32864;SDS011;19219;44.500;11.188;2023-04-25T12:00:05;2.13;;;1.23;;
32864;SDS011;19219;44.500;11.188;2023-04-25T12:02:42;1.63;;;0.70;;
32864;SDS011;19219;44.500;11.188;2023-04-25T12:05:20;1.00;;;0.80;;
32864;SDS011;19219;44.500;11.188;2023-04-25T12:07:49;1.02;;;0.57;;
32864;SDS011;19219;44.500;11.188;2023-04-25T12:10:15;2.08;;;0.52;;
32864;SDS011;19219;44.500;11.188;2023-04-25T12:12:43;1.73;;;0.80;;
32864;SDS011;19219;44.500;11.188;2023-04-25T12:15:11;0.90;;;0.90;;
32864;SDS011;19219;44.500;11.188;2023-04-25T12:17:42;0.80;;;0.80;;
32864;SDS011;19219;44.500;11.188;2023-04-25T12:20:17;1.55;;;0.90;;
32864;SDS011;19219;44.500;11.188;2023-04-25T12:22:51;0.80;;;0.80;;
32864;SDS011;19219;44.500;11.188;2023-04-25T12:28:19;0.85;;;0.80;;
32864;SDS011;19219;44.500;11.188;2023-04-25T12:30:55;1.10;;;0.85;;
32864;SDS011;19219;44.500;11.188;2023-04-25T12:33:21;1.95;;;0.60;;
32864;SDS011;19219;44.500;11.188;2023-04-25T12:35:47;1.25;;;0.50;;
32864;SDS011;19219;44.500;11.188;2023-04-25T12:40:49;1.25;;;0.73;;
32864;SDS011;19219;44.500;11.188;2023-04-25T12:43:14;0.50;;;0.47;;
32864;SDS011;19219;44.500;11.188;2023-04-25T12:45:40;0.45;;;0.40;;
32864;SDS011;19219;44.500;11.188;2023-04-25T12:48:06;0.65;;;0.40;;
32864;SDS011;19219;44.500;11.188;2023-04-25T12:50:31;1.50;;;0.73;;
32864;SDS011;19219;44.500;11.188;2023-04-25T12:52:57;0.75;;;0.32;;
32864;SDS011;19219;44.500;11.188;2023-04-25T12:55:22;0.50;;;0.50;;
32864;SDS011;19219;44.500;11.188;2023-04-25T12:57:48;0.82;;;0.60;;
32864;SDS011;19219;44.500;11.188;2023-04-25T13:00:14;1.45;;;0.90;;
32864;SDS011;19219;44.500;11.188;2023-04-25T13:02:42;1.40;;;0.50;;
32864;SDS011;19219;44.500;11.188;2023-04-25T13:05:08;0.30;;;0.30;;
32864;SDS011;19219;44.500;11.188;2023-04-25T13:07:34;0.40;;;0.40;;
32864;SDS011;19219;44.500;11.188;2023-04-25T13:09:59;0.45;;;0.40;;
32864;SDS011;19219;44.500;11.188;2023-04-25T13:12:27;4.78;;;0.50;;
32864;SDS011;19219;44.500;11.188;2023-04-25T13:14:53;0.77;;;0.32;;
32864;SDS011;19219;44.500;11.188;2023-04-25T13:17:18;0.45;;;0.45;;
32864;SDS011;19219;44.500;11.188;2023-04-25T13:19:44;0.85;;;0.32;;
32864;SDS011;19219;44.500;11.188;2023-04-25T13:22:10;0.52;;;0.30;;
32864;SDS011;19219;44.500;11.188;2023-04-25T13:24:36;0.38;;;0.38;;
32864;SDS011;19219;44.500;11.188;2023-04-25T13:27:01;0.28;;;0.28;;
32864;SDS011;19219;44.500;11.188;2023-04-25T13:29:27;0.35;;;0.30;;
32864;SDS011;19219;44.500;11.188;2023-04-25T13:31:53;2.55;;;0.40;;
32864;SDS011;19219;44.500;11.188;2023-04-25T13:34:18;4.72;;;1.15;;
32864;SDS011;19219;44.500;11.188;2023-04-25T13:36:44;0.38;;;0.38;;
32864;SDS011;19219;44.500;11.188;2023-04-25T13:39:10;0.35;;;0.25;;
32864;SDS011;19219;44.500;11.188;2023-04-25T13:41:36;0.38;;;0.30;;
32864;SDS011;19219;44.500;11.188;2023-04-25T13:44:02;0.95;;;0.75;;
32864;SDS011;19219;44.500;11.188;2023-04-25T13:46:27;0.68;;;0.43;;
32864;SDS011;19219;44.500;11.188;2023-04-25T13:48:53;1.65;;;0.45;;
32864;SDS011;19219;44.500;11.188;2023-04-25T13:51:18;1.88;;;0.50;;
32864;SDS011;19219;44.500;11.188;2023-04-25T13:53:45;0.80;;;0.57;;
32864;SDS011;19219;44.500;11.188;2023-04-25T13:56:11;1.17;;;0.63;;
32864;SDS011;19219;44.500;11.188;2023-04-25T13:58:37;1.50;;;0.50;;
32864;SDS011;19219;44.500;11.188;2023-04-25T14:01:02;0.50;;;0.50;;
32864;SDS011;19219;44.500;11.188;2023-04-25T14:03:28;0.50;;;0.50;;
32864;SDS011;19219;44.500;11.188;2023-04-25T14:05:55;0.75;;;0.43;;
32864;SDS011;19219;44.500;11.188;2023-04-25T14:08:20;0.90;;;0.80;;
32864;SDS011;19219;44.500;11.188;2023-04-25T14:10:46;3.92;;;0.65;;
32864;SDS011;19219;44.500;11.188;2023-04-25T14:13:12;1.20;;;0.45;;
32864;SDS011;19219;44.500;11.188;2023-04-25T14:15:37;0.90;;;0.55;;
32864;SDS011;19219;44.500;11.188;2023-04-25T14:18:03;0.82;;;0.60;;
32864;SDS011;19219;44.500;11.188;2023-04-25T14:20:29;2.88;;;0.77;;
32864;SDS011;19219;44.500;11.188;2023-04-25T14:22:55;1.48;;;0.50;;
32864;SDS011;19219;44.500;11.188;2023-04-25T14:25:22;0.70;;;0.70;;
32864;SDS011;19219;44.500;11.188;2023-04-25T14:27:48;0.77;;;0.50;;
32864;SDS011;19219;44.500;11.188;2023-04-25T14:30:18;0.60;;;0.60;;
32864;SDS011;19219;44.500;11.188;2023-04-25T14:32:44;3.03;;;0.60;;
32864;SDS011;19219;44.500;11.188;2023-04-25T14:35:10;0.98;;;0.55;;
32864;SDS011;19219;44.500;11.188;2023-04-25T14:37:36;2.17;;;0.75;;
32864;SDS011;19219;44.500;11.188;2023-04-25T14:40:02;8.52;;;1.13;;
32864;SDS011;19219;44.500;11.188;2023-04-25T14:42:28;2.13;;;0.70;;